Time;durP1;ratioP1;P1;durP2;ratioP2;P2;SDS_P1;SDS_P2;PMS_P1;PMS_P2;Temp;Humidity;BMP_temperature;BMP_pressure;BME280_temperature;BME280_humidity;BME280_pressure;Samples;Min_cycle;Max_cycle;Signal;HPM_P1;HPM_P2
2020/12/01 00:02:15;;;;;;;415.98;239.80;;;;;;;;;;5069234;28;20036;-50
2020/12/01 00:04:42;;;;;;;426.48;242.00;;;;;;;;;;5064169;28;20432;-51
2020/12/01 00:07:08;;;;;;;416.75;237.40;;;;;;;;;;5065862;28;20021;-51
2020/12/01 00:09:34;;;;;;;416.38;237.55;;;;;;;;;;5069177;28;20502;-52
2020/12/01 00:12:00;;;;;;;419.65;236.98;;;;;;;;;;5068976;28;20036;-53
2020/12/01 00:14:26;;;;;;;423.33;239.52;;;;;;;;;;5046180;28;20120;-50
2020/12/01 00:16:52;;;;;;;423.92;236.48;;;;;;;;;;5068913;28;20032;-49
2020/12/01 00:19:18;;;;;;;416.45;236.20;;;;;;;;;;5042391;28;20040;-52
2020/12/01 00:21:45;;;;;;;410.30;233.07;;;;;;;;;;5063898;28;20474;-52
2020/12/01 00:24:11;;;;;;;417.88;232.65;;;;;;;;;;5067450;28;20072;-50
2020/12/01 00:26:37;;;;;;;421.10;235.82;;;;;;;;;;5064217;28;20037;-48
2020/12/01 00:29:03;;;;;;;420.92;238.95;;;;;;;;;;5065824;28;20391;-53
2020/12/01 00:31:29;;;;;;;412.80;230.75;;;;;;;;;;5070112;28;20045;-50
2020/12/01 00:33:55;;;;;;;416.90;235.95;;;;;;;;;;5065977;28;20327;-49
2020/12/01 00:36:27;;;;;;;417.67;236.57;;;;;;;;;;5070364;28;20052;-50
2020/12/01 00:38:53;;;;;;;423.25;238.18;;;;;;;;;;5060820;28;20059;-52
2020/12/01 00:41:19;;;;;;;411.92;231.35;;;;;;;;;;5064426;28;20036;-51
2020/12/01 00:43:45;;;;;;;420.80;234.75;;;;;;;;;;5069733;28;20059;-50
2020/12/01 00:46:11;;;;;;;424.35;238.35;;;;;;;;;;5067732;28;20033;-49
2020/12/01 00:48:37;;;;;;;424.80;234.40;;;;;;;;;;5062191;28;20479;-52
2020/12/01 00:51:03;;;;;;;424.75;237.25;;;;;;;;;;5071148;28;20060;-50
2020/12/01 00:53:29;;;;;;;426.27;237.05;;;;;;;;;;5062333;28;20021;-49
2020/12/01 00:55:55;;;;;;;419.17;231.73;;;;;;;;;;5063029;28;20099;-54
2020/12/01 00:58:21;;;;;;;422.00;237.95;;;;;;;;;;5065787;28;20024;-53
2020/12/01 01:00:48;;;;;;;417.30;230.65;;;;;;;;;;5065275;28;20044;-48
2020/12/01 01:03:14;;;;;;;413.55;230.95;;;;;;;;;;5063212;28;20024;-49
2020/12/01 01:05:41;;;;;;;413.75;231.15;;;;;;;;;;5069563;28;20032;-48
2020/12/01 01:08:07;;;;;;;416.13;232.95;;;;;;;;;;5067386;28;20040;-49
2020/12/01 01:10:33;;;;;;;420.75;235.30;;;;;;;;;;5039972;28;20029;-52
2020/12/01 01:13:00;;;;;;;422.33;235.55;;;;;;;;;;5068372;28;20549;-52
2020/12/01 01:15:28;;;;;;;415.63;230.55;;;;;;;;;;5061299;28;20024;-48
2020/12/01 01:17:54;;;;;;;423.35;233.70;;;;;;;;;;5066564;28;20017;-52
2020/12/01 01:20:20;;;;;;;418.38;232.45;;;;;;;;;;5064148;28;21610;-50
2020/12/01 01:22:46;;;;;;;426.33;235.07;;;;;;;;;;5066918;28;20021;-54
2020/12/01 01:25:13;;;;;;;420.20;233.05;;;;;;;;;;5061559;28;20025;-53
2020/12/01 01:27:39;;;;;;;414.30;229.88;;;;;;;;;;5067967;28;20032;-51
2020/12/01 01:30:05;;;;;;;414.58;230.45;;;;;;;;;;5068072;28;20059;-49
2020/12/01 01:32:31;;;;;;;411.38;228.00;;;;;;;;;;5069879;28;20479;-50
2020/12/01 01:34:57;;;;;;;414.23;227.27;;;;;;;;;;5067857;28;20094;-50
2020/12/01 01:37:23;;;;;;;414.00;229.40;;;;;;;;;;5063666;28;20016;-48
2020/12/01 01:39:49;;;;;;;418.58;231.25;;;;;;;;;;5064339;28;20025;-53
2020/12/01 01:42:15;;;;;;;414.50;228.18;;;;;;;;;;5067662;28;20078;-49
2020/12/01 01:44:41;;;;;;;417.52;229.18;;;;;;;;;;5066710;28;20028;-48
2020/12/01 01:47:26;;;;;;;415.88;226.55;;;;;;;;;;5069889;28;20052;-48
2020/12/01 01:50:05;;;;;;;411.55;224.85;;;;;;;;;;5065434;28;20374;-50
2020/12/01 01:52:33;;;;;;;411.23;224.25;;;;;;;;;;5061686;28;20351;-48
2020/12/01 01:55:09;;;;;;;416.83;229.40;;;;;;;;;;5068693;28;20028;-49
2020/12/01 01:57:36;;;;;;;413.15;225.70;;;;;;;;;;5058230;28;20024;-54
2020/12/01 02:00:06;;;;;;;409.15;223.77;;;;;;;;;;5066049;28;20150;-51
2020/12/01 02:02:32;;;;;;;;;;;;;;;;;;5067532;28;20099;-50
2020/12/01 02:04:58;;;;;;;413.67;217.45;;;;;;;;;;5065204;28;20012;-51
2020/12/01 02:07:25;;;;;;;410.55;220.95;;;;;;;;;;5071281;28;20021;-50
2020/12/01 02:09:53;;;;;;;414.88;223.48;;;;;;;;;;5061741;28;20666;-52
2020/12/01 02:12:20;;;;;;;411.50;217.90;;;;;;;;;;5059239;28;20486;-48
2020/12/01 02:14:49;;;;;;;415.92;225.45;;;;;;;;;;5072255;28;20386;-49
2020/12/01 02:17:32;;;;;;;414.60;223.25;;;;;;;;;;5066720;28;20050;-50
2020/12/01 02:19:59;;;;;;;406.88;219.23;;;;;;;;;;5063224;28;20036;-49
2020/12/01 02:22:28;;;;;;;407.33;218.20;;;;;;;;;;5066446;28;20017;-53
2020/12/01 02:24:57;;;;;;;411.48;220.02;;;;;;;;;;5066202;28;20105;-52
2020/12/01 02:27:25;;;;;;;411.15;220.15;;;;;;;;;;5064779;28;20806;-47
2020/12/01 02:29:52;;;;;;;412.40;221.35;;;;;;;;;;5065897;28;20020;-51
2020/12/01 02:32:18;;;;;;;416.90;224.23;;;;;;;;;;5066403;28;20470;-49
2020/12/01 02:34:46;;;;;;;416.75;224.68;;;;;;;;;;5068230;28;20031;-50
2020/12/01 02:37:13;;;;;;;413.42;226.90;;;;;;;;;;5070981;28;20013;-51
2020/12/01 02:39:39;;;;;;;411.65;223.70;;;;;;;;;;5066803;28;20526;-50
2020/12/01 02:42:07;;;;;;;413.35;224.43;;;;;;;;;;5067141;28;20113;-50
2020/12/01 02:44:33;;;;;;;414.02;223.95;;;;;;;;;;5062668;28;20039;-52
2020/12/01 02:47:01;;;;;;;411.08;222.65;;;;;;;;;;5069910;28;20059;-51
2020/12/01 02:49:27;;;;;;;421.65;228.60;;;;;;;;;;5055233;28;20025;-51
2020/12/01 02:51:53;;;;;;;415.58;224.73;;;;;;;;;;5069735;28;20408;-52
2020/12/01 02:54:19;;;;;;;415.77;224.52;;;;;;;;;;5062338;28;20055;-49
2020/12/01 02:56:45;;;;;;;417.20;224.52;;;;;;;;;;5067176;28;20029;-50
2020/12/01 02:59:12;;;;;;;420.88;226.77;;;;;;;;;;5059888;28;20025;-47
2020/12/01 03:01:38;;;;;;;416.85;223.05;;;;;;;;;;5065417;28;20033;-53
2020/12/01 03:04:04;;;;;;;415.05;221.07;;;;;;;;;;5064138;28;20097;-54
2020/12/01 03:06:30;;;;;;;417.50;221.43;;;;;;;;;;5072224;28;20017;-52
2020/12/01 03:08:56;;;;;;;424.40;230.52;;;;;;;;;;5067013;28;20032;-49
2020/12/01 03:11:23;;;;;;;423.10;227.15;;;;;;;;;;5067475;28;20025;-49
2020/12/01 03:13:49;;;;;;;426.85;230.77;;;;;;;;;;5061769;28;20032;-51
2020/12/01 03:16:15;;;;;;;421.48;222.65;;;;;;;;;;5071385;28;20025;-49
2020/12/01 03:18:43;;;;;;;426.65;223.80;;;;;;;;;;5063417;28;20086;-52
2020/12/01 03:21:10;;;;;;;432.00;233.73;;;;;;;;;;5069059;28;20012;-51
2020/12/01 03:23:36;;;;;;;431.52;232.88;;;;;;;;;;5072795;28;20089;-48
2020/12/01 03:26:02;;;;;;;430.10;228.93;;;;;;;;;;5063704;28;20020;-48
2020/12/01 03:28:29;;;;;;;435.42;229.98;;;;;;;;;;5070391;28;20021;-51
2020/12/01 03:30:55;;;;;;;439.60;234.60;;;;;;;;;;5070238;28;20048;-49
2020/12/01 03:33:21;;;;;;;428.55;227.00;;;;;;;;;;5071690;28;20426;-51
2020/12/01 03:35:47;;;;;;;432.60;233.52;;;;;;;;;;5068185;28;20036;-53
2020/12/01 03:38:13;;;;;;;427.38;229.50;;;;;;;;;;5071086;28;21701;-50
2020/12/01 03:40:39;;;;;;;427.70;230.50;;;;;;;;;;5069255;28;20107;-49
2020/12/01 03:43:05;;;;;;;436.52;230.50;;;;;;;;;;5068652;28;20127;-48
2020/12/01 03:45:31;;;;;;;429.67;227.10;;;;;;;;;;5069005;28;20040;-51
2020/12/01 03:47:57;;;;;;;432.55;230.45;;;;;;;;;;5056608;28;20065;-50
2020/12/01 03:50:24;;;;;;;437.45;234.38;;;;;;;;;;5070774;28;20056;-51
2020/12/01 03:52:50;;;;;;;439.40;232.65;;;;;;;;;;5068549;28;20024;-50
2020/12/01 03:55:16;;;;;;;429.05;228.65;;;;;;;;;;5063221;28;20019;-50
2020/12/01 03:57:42;;;;;;;439.50;233.32;;;;;;;;;;5062188;28;20458;-49
2020/12/01 04:00:13;;;;;;;431.38;230.23;;;;;;;;;;5069877;28;20044;-50
2020/12/01 04:02:39;;;;;;;431.00;226.15;;;;;;;;;;5055303;28;20489;-49
2020/12/01 04:05:05;;;;;;;426.50;230.00;;;;;;;;;;5068083;28;20108;-50
2020/12/01 04:07:32;;;;;;;424.10;226.93;;;;;;;;;;5067277;28;20020;-48
2020/12/01 04:09:58;;;;;;;426.33;225.95;;;;;;;;;;5067018;28;20127;-53
2020/12/01 04:12:25;;;;;;;425.85;230.25;;;;;;;;;;5066183;28;20358;-49
2020/12/01 04:14:51;;;;;;;426.75;227.80;;;;;;;;;;5070847;28;20040;-49
2020/12/01 04:17:17;;;;;;;418.30;222.02;;;;;;;;;;5069216;28;20055;-49
2020/12/01 04:19:43;;;;;;;423.23;226.45;;;;;;;;;;5057365;28;20029;-49
2020/12/01 04:22:09;;;;;;;428.17;227.70;;;;;;;;;;5065650;28;20288;-52
2020/12/01 04:24:35;;;;;;;420.08;221.65;;;;;;;;;;5065851;28;20028;-54
2020/12/01 04:27:01;;;;;;;435.00;235.02;;;;;;;;;;5067260;28;20017;-50
2020/12/01 04:29:27;;;;;;;421.73;221.23;;;;;;;;;;5065069;28;20016;-51
2020/12/01 04:31:53;;;;;;;434.15;230.02;;;;;;;;;;5065009;28;20435;-52
2020/12/01 04:34:19;;;;;;;425.23;226.73;;;;;;;;;;5070998;28;20097;-49
2020/12/01 04:36:45;;;;;;;428.42;224.93;;;;;;;;;;5071187;28;20522;-52
2020/12/01 04:39:11;;;;;;;436.45;230.43;;;;;;;;;;5062889;28;20366;-50
2020/12/01 04:41:37;;;;;;;437.65;230.50;;;;;;;;;;5071201;28;20032;-51
2020/12/01 04:44:04;;;;;;;427.17;223.25;;;;;;;;;;5067543;28;20028;-53
2020/12/01 04:46:35;;;;;;;430.33;225.70;;;;;;;;;;5069622;28;20312;-49
2020/12/01 04:49:05;;;;;;;430.67;223.80;;;;;;;;;;5066553;28;20047;-48
2020/12/01 04:51:30;;;;;;;430.17;224.85;;;;;;;;;;5068664;28;20051;-52
2020/12/01 04:54:15;;;;;;;423.33;224.20;;;;;;;;;;5066508;28;20032;-49
2020/12/01 04:57:00;;;;;;;419.85;221.40;;;;;;;;;;5067513;28;20138;-49
2020/12/01 04:59:26;;;;;;;422.77;223.70;;;;;;;;;;5068720;28;20035;-48
2020/12/01 05:01:52;;;;;;;433.73;229.43;;;;;;;;;;5068887;28;20020;-52
2020/12/01 05:04:30;;;;;;;445.85;238.27;;;;;;;;;;5066316;28;20032;-51
2020/12/01 05:07:17;;;;;;;430.67;226.98;;;;;;;;;;5062305;28;20413;-50
2020/12/01 05:09:51;;;;;;;427.27;225.13;;;;;;;;;;5068332;28;20035;-53
2020/12/01 05:12:29;;;;;;;428.05;224.98;;;;;;;;;;5062487;28;20033;-49
2020/12/01 05:14:57;;;;;;;425.40;221.75;;;;;;;;;;5067962;28;20021;-50
2020/12/01 05:17:41;;;;;;;425.23;225.23;;;;;;;;;;5065818;28;20029;-49
2020/12/01 05:20:08;;;;;;;429.08;225.77;;;;;;;;;;5062562;28;20112;-50
2020/12/01 05:22:34;;;;;;;440.38;231.75;;;;;;;;;;5059486;28;20021;-47
2020/12/01 05:25:00;;;;;;;431.65;225.40;;;;;;;;;;5059821;28;20024;-49
2020/12/01 05:27:36;;;;;;;453.25;239.43;;;;;;;;;;5058730;28;20032;-51
2020/12/01 05:30:13;;;;;;;448.73;233.35;;;;;;;;;;5069033;28;20028;-49
2020/12/01 05:32:41;;;;;;;454.08;237.65;;;;;;;;;;5058188;28;20470;-49
2020/12/01 05:35:18;;;;;;;463.77;245.30;;;;;;;;;;5062597;28;20678;-50
2020/12/01 05:37:56;;;;;;;439.35;229.90;;;;;;;;;;5061947;28;20024;-50
2020/12/01 05:40:23;;;;;;;436.67;227.70;;;;;;;;;;5068231;28;20025;-49
2020/12/01 05:42:49;;;;;;;437.83;232.48;;;;;;;;;;5063775;28;20047;-51
2020/12/01 05:45:20;;;;;;;442.63;233.43;;;;;;;;;;5058916;28;20064;-50
2020/12/01 05:47:48;;;;;;;440.98;231.02;;;;;;;;;;5059077;28;20029;-53
2020/12/01 05:50:24;;;;;;;443.35;233.77;;;;;;;;;;5064589;28;20021;-50
2020/12/01 05:53:03;;;;;;;441.63;229.85;;;;;;;;;;5055384;28;20063;-51
2020/12/01 05:55:29;;;;;;;437.33;230.55;;;;;;;;;;5059555;28;20013;-51
2020/12/01 05:58:09;;;;;;;445.20;232.40;;;;;;;;;;5067296;28;20082;-49
2020/12/01 06:00:37;;;;;;;431.23;225.10;;;;;;;;;;5059607;28;20028;-54
2020/12/01 06:03:22;;;;;;;443.08;231.23;;;;;;;;;;5068410;28;20471;-53
2020/12/01 06:05:49;;;;;;;442.70;230.27;;;;;;;;;;5064968;28;20017;-53
2020/12/01 06:08:34;;;;;;;444.85;230.70;;;;;;;;;;5065896;28;20021;-47
2020/12/01 06:11:21;;;;;;;446.10;232.35;;;;;;;;;;5064960;28;20414;-48
2020/12/01 06:13:48;;;;;;;441.20;227.75;;;;;;;;;;5063002;28;20025;-49
2020/12/01 06:16:14;;;;;;;434.23;230.68;;;;;;;;;;5059132;28;20146;-51
2020/12/01 06:19:02;;;;;;;424.65;219.82;;;;;;;;;;5069124;28;20103;-46
2020/12/01 06:21:31;;;;;;;422.42;220.38;;;;;;;;;;5069535;28;20047;-55
2020/12/01 06:24:32;;;;;;;425.73;222.50;;;;;;;;;;5068182;28;20434;-50
2020/12/01 06:27:17;;;;;;;419.13;213.68;;;;;;;;;;5015190;28;20162;-50
2020/12/01 06:29:49;;;;;;;431.05;223.50;;;;;;;;;;5062149;28;20036;-52
2020/12/01 06:32:23;;;;;;;429.40;225.02;;;;;;;;;;5069003;28;20120;-48
2020/12/01 06:35:11;;;;;;;428.77;217.25;;;;;;;;;;5068946;28;20067;-48
2020/12/01 06:37:56;;;;;;;432.85;223.15;;;;;;;;;;5061748;28;20041;-51
2020/12/01 06:40:34;;;;;;;435.30;224.43;;;;;;;;;;5071632;28;20511;-50
2020/12/01 06:43:14;;;;;;;429.08;222.23;;;;;;;;;;5064036;28;20094;-50
2020/12/01 06:45:42;;;;;;;429.52;224.45;;;;;;;;;;5063906;28;20032;-50
2020/12/01 06:48:15;;;;;;;429.80;222.60;;;;;;;;;;5066647;28;20458;-53
2020/12/01 06:50:44;;;;;;;431.77;226.52;;;;;;;;;;5071661;28;20110;-49
2020/12/01 06:53:10;;;;;;;433.77;224.65;;;;;;;;;;5064417;28;20024;-50
2020/12/01 06:55:43;;;;;;;434.85;226.98;;;;;;;;;;5071995;28;20146;-49
2020/12/01 06:58:15;;;;;;;436.85;227.00;;;;;;;;;;5069084;28;20013;-51
2020/12/01 07:00:41;;;;;;;428.52;218.88;;;;;;;;;;5071376;28;20032;-48
2020/12/01 07:03:08;;;;;;;430.92;220.98;;;;;;;;;;5070465;28;20043;-50
2020/12/01 07:05:34;;;;;;;432.42;224.15;;;;;;;;;;5072708;28;20122;-49
2020/12/01 07:08:11;;;;;;;428.63;220.32;;;;;;;;;;5067648;28;20382;-48
2020/12/01 07:10:37;;;;;;;433.42;226.82;;;;;;;;;;5071712;28;20085;-48
2020/12/01 07:13:12;;;;;;;439.60;231.27;;;;;;;;;;5062354;28;20346;-49
2020/12/01 07:15:40;;;;;;;434.00;223.13;;;;;;;;;;5071532;28;20501;-50
2020/12/01 07:18:10;;;;;;;432.17;225.40;;;;;;;;;;5070340;28;20012;-53
2020/12/01 07:20:42;;;;;;;427.95;219.82;;;;;;;;;;5068887;28;20031;-50
2020/12/01 07:23:13;;;;;;;435.92;227.20;;;;;;;;;;5067948;28;20036;-47
2020/12/01 07:25:53;;;;;;;428.55;221.95;;;;;;;;;;5069772;28;20036;-49
2020/12/01 07:28:43;;;;;;;431.38;219.38;;;;;;;;;;5067884;28;20150;-50
2020/12/01 07:31:38;;;;;;;430.13;220.82;;;;;;;;;;5062747;28;20048;-47
2020/12/01 07:34:21;;;;;;;434.67;222.32;;;;;;;;;;5059987;28;20404;-50
2020/12/01 07:36:49;;;;;;;437.63;224.82;;;;;;;;;;5063304;28;20021;-51
2020/12/01 07:39:18;;;;;;;432.02;224.13;;;;;;;;;;5071534;28;20027;-50
2020/12/01 07:41:46;;;;;;;436.33;227.38;;;;;;;;;;5066385;28;20100;-48
2020/12/01 07:44:14;;;;;;;432.58;227.73;;;;;;;;;;5059250;28;20013;-53
2020/12/01 07:49:17;;;;;;;436.60;224.63;;;;;;;;;;5066311;28;20554;-50
2020/12/01 07:51:43;;;;;;;435.65;224.30;;;;;;;;;;5069272;28;20063;-49
2020/12/01 07:54:09;;;;;;;440.42;232.65;;;;;;;;;;5069074;28;20343;-52
2020/12/01 07:56:39;;;;;;;437.98;230.88;;;;;;;;;;5069444;28;20099;-48
2020/12/01 07:59:06;;;;;;;438.35;231.07;;;;;;;;;;5060712;28;20029;-50
2020/12/01 08:01:33;;;;;;;442.30;232.75;;;;;;;;;;5064334;28;20040;-51
2020/12/01 08:04:12;;;;;;;441.63;230.60;;;;;;;;;;5067779;28;20032;-49
2020/12/01 08:06:39;;;;;;;446.45;228.40;;;;;;;;;;5065195;28;20032;-48
2020/12/01 08:09:20;;;;;;;443.33;233.60;;;;;;;;;;5067451;28;20033;-47
2020/12/01 08:11:47;;;;;;;439.67;226.93;;;;;;;;;;5064582;28;20040;-50
2020/12/01 08:14:13;;;;;;;444.20;230.80;;;;;;;;;;5069210;28;20116;-49
2020/12/01 08:16:41;;;;;;;437.83;228.15;;;;;;;;;;5066615;28;20104;-51
2020/12/01 08:19:10;;;;;;;443.02;231.82;;;;;;;;;;5070659;28;20024;-52
2020/12/01 08:21:37;;;;;;;443.65;229.40;;;;;;;;;;5071117;28;20025;-49
2020/12/01 08:24:07;;;;;;;447.52;234.65;;;;;;;;;;5069261;28;20028;-52
2020/12/01 08:26:34;;;;;;;453.33;236.23;;;;;;;;;;5066606;28;20083;-49
2020/12/01 08:29:14;;;;;;;451.73;236.55;;;;;;;;;;5062081;28;20029;-51
2020/12/01 08:31:40;;;;;;;;;;;;;;;;;;5063951;28;20043;-50
2020/12/01 08:34:08;;;;;;;448.25;223.88;;;;;;;;;;5065818;28;19905;-52
2020/12/01 08:36:53;;;;;;;459.80;237.77;;;;;;;;;;5064809;28;20067;-53
2020/12/01 08:39:30;;;;;;;457.80;236.73;;;;;;;;;;5063955;28;20143;-50
2020/12/01 08:42:09;;;;;;;456.90;234.77;;;;;;;;;;5067022;28;20017;-48
2020/12/01 08:44:42;;;;;;;450.70;229.30;;;;;;;;;;5063031;28;20033;-50
2020/12/01 08:47:08;;;;;;;463.98;241.00;;;;;;;;;;5060109;28;20022;-48
2020/12/01 08:49:41;;;;;;;456.27;234.68;;;;;;;;;;5070500;28;20020;-49
2020/12/01 08:52:23;;;;;;;463.30;244.23;;;;;;;;;;5060435;28;20402;-52
2020/12/01 08:54:57;;;;;;;459.67;238.07;;;;;;;;;;5070185;28;20043;-54
2020/12/01 08:57:28;;;;;;;469.02;247.65;;;;;;;;;;5064706;28;20032;-50
2020/12/01 09:00:12;;;;;;;458.10;238.88;;;;;;;;;;5062506;28;20048;-50
2020/12/01 09:02:39;;;;;;;468.98;251.30;;;;;;;;;;5065693;28;20091;-49
2020/12/01 09:05:08;;;;;;;471.50;247.43;;;;;;;;;;5063544;28;20021;-48
2020/12/01 09:07:40;;;;;;;476.55;249.18;;;;;;;;;;5063458;28;20036;-49
2020/12/01 09:10:12;;;;;;;496.27;259.60;;;;;;;;;;5070357;28;20020;-51
2020/12/01 09:23:23;;;;;;;467.52;245.90;;;;;;;;;;5067440;28;20454;-48
2020/12/01 09:25:49;;;;;;;467.83;246.13;;;;;;;;;;5067937;28;20040;-52
2020/12/01 09:28:23;;;;;;;443.27;231.60;;;;;;;;;;5060889;28;20028;-51
2020/12/01 09:30:49;;;;;;;461.50;241.52;;;;;;;;;;5066470;28;20045;-48
2020/12/01 09:33:18;;;;;;;452.52;231.20;;;;;;;;;;5063203;28;20050;-54
2020/12/01 09:35:45;;;;;;;454.88;241.70;;;;;;;;;;5062163;28;20009;-48
2020/12/01 09:38:11;;;;;;;451.20;239.32;;;;;;;;;;5065702;28;20017;-47
2020/12/01 09:40:38;;;;;;;462.10;247.88;;;;;;;;;;5058822;28;20452;-52
2020/12/01 09:43:12;;;;;;;456.17;238.77;;;;;;;;;;5064172;28;20135;-48
2020/12/01 09:45:41;;;;;;;462.73;249.90;;;;;;;;;;5058505;28;20028;-49
2020/12/01 09:50:40;;;;;;;458.05;240.32;;;;;;;;;;5062340;28;20039;-51
2020/12/01 09:59:15;;;;;;;460.02;239.20;;;;;;;;;;5062193;28;20043;-50
2020/12/01 10:20:45;;;;;;;461.90;247.85;;;;;;;;;;5063215;28;20130;-47
2020/12/01 10:36:07;;;;;;;469.75;259.27;;;;;;;;;;5060564;28;20043;-47
2020/12/01 10:38:34;;;;;;;485.55;270.35;;;;;;;;;;5061787;28;20025;-49
2020/12/01 10:41:00;;;;;;;474.40;265.65;;;;;;;;;;5064653;28;20021;-49
2020/12/01 10:43:26;;;;;;;484.30;272.58;;;;;;;;;;5065013;28;20025;-52
2020/12/01 10:45:52;;;;;;;473.13;267.33;;;;;;;;;;5058581;28;20040;-50
2020/12/01 10:48:18;;;;;;;471.77;267.30;;;;;;;;;;5064322;28;20032;-49
2020/12/01 10:50:44;;;;;;;472.95;269.55;;;;;;;;;;5050834;28;20048;-51
2020/12/01 10:53:10;;;;;;;464.98;265.92;;;;;;;;;;5049203;28;20188;-47
2020/12/01 10:55:36;;;;;;;486.98;279.40;;;;;;;;;;5050915;28;20824;-50
2020/12/01 10:58:02;;;;;;;473.98;273.48;;;;;;;;;;5049641;28;20135;-51
2020/12/01 11:00:28;;;;;;;497.52;288.30;;;;;;;;;;5050305;28;20446;-55
2020/12/01 11:02:54;;;;;;;465.90;268.02;;;;;;;;;;5065691;28;20043;-53
2020/12/01 11:05:26;;;;;;;478.83;279.00;;;;;;;;;;5069750;28;20363;-51
2020/12/01 11:07:52;;;;;;;465.95;268.05;;;;;;;;;;5057098;28;20039;-46
2020/12/01 11:10:18;;;;;;;471.08;270.55;;;;;;;;;;5062675;28;20020;-50
2020/12/01 11:12:44;;;;;;;469.23;264.85;;;;;;;;;;5063205;28;20038;-51
2020/12/01 11:15:10;;;;;;;468.95;266.27;;;;;;;;;;5065498;28;20020;-46
2020/12/01 11:17:36;;;;;;;493.25;284.52;;;;;;;;;;5067425;28;20055;-48
2020/12/01 11:20:04;;;;;;;468.65;265.63;;;;;;;;;;5070517;28;20017;-47
2020/12/01 11:22:30;;;;;;;471.20;273.05;;;;;;;;;;5070500;28;20024;-48
2020/12/01 11:24:55;;;;;;;482.67;280.45;;;;;;;;;;5059038;28;20024;-51
2020/12/01 11:27:21;;;;;;;495.05;291.65;;;;;;;;;;5070330;28;20036;-49
2020/12/01 11:29:47;;;;;;;505.45;297.52;;;;;;;;;;5069028;28;20016;-49
2020/12/01 11:32:13;;;;;;;468.67;277.42;;;;;;;;;;5070752;28;20119;-49
2020/12/01 11:34:39;;;;;;;464.48;271.25;;;;;;;;;;5063244;28;20025;-49
2020/12/01 11:37:05;;;;;;;464.58;264.67;;;;;;;;;;5071408;28;20383;-48
2020/12/01 11:39:31;;;;;;;473.05;273.85;;;;;;;;;;5063677;28;20028;-47
2020/12/01 11:41:57;;;;;;;473.20;271.90;;;;;;;;;;5065692;28;20054;-57
2020/12/01 11:44:23;;;;;;;445.23;260.00;;;;;;;;;;5062340;28;20048;-47
2020/12/01 11:46:49;;;;;;;446.65;257.88;;;;;;;;;;5060144;28;20021;-49
2020/12/01 11:49:15;;;;;;;450.05;260.45;;;;;;;;;;5057952;28;20013;-45
2020/12/01 11:51:42;;;;;;;442.73;257.10;;;;;;;;;;5059632;28;20067;-44
2020/12/01 11:54:09;;;;;;;442.13;256.30;;;;;;;;;;5065770;28;20111;-46
2020/12/01 11:56:35;;;;;;;446.15;253.57;;;;;;;;;;5057019;28;20029;-45
2020/12/01 11:59:01;;;;;;;452.95;264.08;;;;;;;;;;5060150;28;20033;-46
2020/12/01 12:01:27;;;;;;;455.52;262.90;;;;;;;;;;5060515;28;20032;-47
2020/12/01 12:03:53;;;;;;;471.20;277.50;;;;;;;;;;5059467;28;20028;-45
2020/12/01 12:06:19;;;;;;;463.50;265.83;;;;;;;;;;5062503;28;20024;-44
2020/12/01 12:08:45;;;;;;;473.73;276.17;;;;;;;;;;5056035;28;20032;-45
2020/12/01 12:11:11;;;;;;;471.83;275.65;;;;;;;;;;5057986;28;20128;-45
2020/12/01 12:13:37;;;;;;;472.17;276.45;;;;;;;;;;5062701;28;20044;-48
2020/12/01 12:16:03;;;;;;;471.42;275.63;;;;;;;;;;5063616;28;20310;-44
2020/12/01 12:18:29;;;;;;;464.65;272.40;;;;;;;;;;5059215;28;20043;-46
2020/12/01 12:20:55;;;;;;;455.10;260.70;;;;;;;;;;5059801;28;20013;-43
2020/12/01 12:23:23;;;;;;;465.30;275.83;;;;;;;;;;5056890;28;20032;-47
2020/12/01 12:25:49;;;;;;;462.38;274.65;;;;;;;;;;5064764;28;20033;-45
2020/12/01 12:28:15;;;;;;;463.92;273.60;;;;;;;;;;5064438;28;20094;-45
2020/12/01 12:30:42;;;;;;;467.08;276.08;;;;;;;;;;5068844;28;20055;-48
2020/12/01 12:33:08;;;;;;;459.63;272.88;;;;;;;;;;5068164;28;20094;-50
2020/12/01 12:35:33;;;;;;;455.95;268.77;;;;;;;;;;5059135;28;20028;-47
2020/12/01 12:37:59;;;;;;;460.73;269.33;;;;;;;;;;5058508;28;20048;-46
2020/12/01 12:40:25;;;;;;;487.95;284.15;;;;;;;;;;5056349;28;20036;-48
2020/12/01 12:42:51;;;;;;;462.77;268.90;;;;;;;;;;5056797;28;20035;-47
2020/12/01 12:45:17;;;;;;;461.10;269.60;;;;;;;;;;5063781;28;20515;-46
2020/12/01 12:47:43;;;;;;;475.58;281.27;;;;;;;;;;5058719;28;20028;-49
2020/12/01 12:50:09;;;;;;;452.38;263.85;;;;;;;;;;5064800;28;20020;-48
2020/12/01 12:52:35;;;;;;;486.52;293.48;;;;;;;;;;5063042;28;20027;-48
2020/12/01 12:55:01;;;;;;;460.45;272.42;;;;;;;;;;5068502;28;20450;-47
2020/12/01 12:57:27;;;;;;;472.15;278.70;;;;;;;;;;5066484;28;20092;-44
2020/12/01 12:59:53;;;;;;;454.80;268.15;;;;;;;;;;5065221;28;20039;-47
2020/12/01 13:02:19;;;;;;;458.83;267.75;;;;;;;;;;5067961;28;20122;-45
2020/12/01 13:04:45;;;;;;;449.58;266.52;;;;;;;;;;5069055;28;20118;-45
2020/12/01 13:07:11;;;;;;;465.08;271.90;;;;;;;;;;5066707;28;20305;-45
2020/12/01 13:09:37;;;;;;;458.95;266.33;;;;;;;;;;5061278;28;20032;-46
2020/12/01 13:12:03;;;;;;;463.50;268.67;;;;;;;;;;5061137;28;20040;-48
2020/12/01 13:14:29;;;;;;;466.58;268.80;;;;;;;;;;5062828;28;20042;-50
2020/12/01 13:16:55;;;;;;;459.02;268.65;;;;;;;;;;5061506;28;20035;-51
2020/12/01 13:19:21;;;;;;;464.45;271.83;;;;;;;;;;5059772;28;20028;-50
2020/12/01 13:21:48;;;;;;;471.52;277.00;;;;;;;;;;5063357;28;20099;-46
2020/12/01 13:24:14;;;;;;;470.67;273.48;;;;;;;;;;5054124;28;20158;-45
2020/12/01 13:26:40;;;;;;;480.02;288.85;;;;;;;;;;5066051;28;20029;-50
2020/12/01 13:29:06;;;;;;;483.52;289.48;;;;;;;;;;5064751;28;20028;-45
2020/12/01 13:31:32;;;;;;;471.63;273.77;;;;;;;;;;5060825;28;20720;-44
2020/12/01 13:33:59;;;;;;;440.63;260.92;;;;;;;;;;5070627;28;20099;-45
2020/12/01 13:36:25;;;;;;;443.85;262.58;;;;;;;;;;5064781;28;20016;-46
2020/12/01 13:38:52;;;;;;;436.55;254.52;;;;;;;;;;5064283;28;20086;-45
2020/12/01 13:41:18;;;;;;;446.17;260.25;;;;;;;;;;5069974;28;20028;-44
2020/12/01 13:43:44;;;;;;;452.30;266.20;;;;;;;;;;5061837;28;20319;-45
2020/12/01 13:46:10;;;;;;;453.67;267.77;;;;;;;;;;5069798;28;20064;-47
2020/12/01 13:48:36;;;;;;;447.77;262.83;;;;;;;;;;5064587;28;20056;-49
2020/12/01 13:51:03;;;;;;;443.95;257.92;;;;;;;;;;5072705;28;20037;-46
2020/12/01 13:53:29;;;;;;;436.17;254.20;;;;;;;;;;5073695;28;20048;-49
2020/12/01 13:55:55;;;;;;;431.35;249.75;;;;;;;;;;5074815;28;20024;-45
2020/12/01 13:58:21;;;;;;;437.92;257.63;;;;;;;;;;5060557;28;20112;-49
2020/12/01 14:00:47;;;;;;;437.00;257.92;;;;;;;;;;5063707;28;20028;-47
2020/12/01 14:03:13;;;;;;;429.33;252.55;;;;;;;;;;5071041;28;20021;-47
2020/12/01 14:05:40;;;;;;;440.30;258.42;;;;;;;;;;5059457;28;20044;-48
2020/12/01 14:08:06;;;;;;;434.88;256.30;;;;;;;;;;5067567;28;20013;-50
2020/12/01 14:10:33;;;;;;;438.58;255.65;;;;;;;;;;5068486;28;20354;-47
2020/12/01 14:12:59;;;;;;;437.90;256.92;;;;;;;;;;5048775;28;20316;-47
2020/12/01 14:15:26;;;;;;;436.25;253.75;;;;;;;;;;5070367;28;20491;-46
2020/12/01 14:17:52;;;;;;;437.50;253.10;;;;;;;;;;5066147;28;20028;-46
2020/12/01 14:20:18;;;;;;;433.58;251.38;;;;;;;;;;5068229;28;20024;-46
2020/12/01 14:22:44;;;;;;;436.25;254.80;;;;;;;;;;5046938;28;20024;-46
2020/12/01 14:25:11;;;;;;;440.08;260.75;;;;;;;;;;5064456;28;20043;-49
2020/12/01 14:27:37;;;;;;;434.60;255.98;;;;;;;;;;5066098;28;20372;-50
2020/12/01 14:30:07;;;;;;;431.25;253.63;;;;;;;;;;5067506;28;20024;-47
2020/12/01 14:32:33;;;;;;;426.83;246.43;;;;;;;;;;5064184;28;20047;-48
2020/12/01 14:34:59;;;;;;;426.23;250.68;;;;;;;;;;5073322;28;20029;-47
2020/12/01 14:37:25;;;;;;;427.70;258.15;;;;;;;;;;5065214;28;20335;-47
2020/12/01 14:39:52;;;;;;;439.33;254.73;;;;;;;;;;5064542;28;20029;-44
2020/12/01 14:42:20;;;;;;;436.90;258.90;;;;;;;;;;5069164;28;20024;-50
2020/12/01 14:44:46;;;;;;;435.02;254.20;;;;;;;;;;5062506;28;20056;-47
2020/12/01 14:47:24;;;;;;;435.27;254.57;;;;;;;;;;5063161;28;20036;-48
2020/12/01 14:50:09;;;;;;;430.95;250.35;;;;;;;;;;5065909;28;20103;-48
2020/12/01 14:52:40;;;;;;;441.13;255.77;;;;;;;;;;5065902;28;20028;-48
2020/12/01 14:55:15;;;;;;;435.55;256.13;;;;;;;;;;5065624;28;20024;-48
2020/12/01 14:57:49;;;;;;;432.42;248.80;;;;;;;;;;5069192;28;20113;-48